Time;durP1;ratioP1;P1;durP2;ratioP2;P2;SDS_P1;SDS_P2;PMS_P1;PMS_P2;Temp;Humidity;BMP_temperature;BMP_pressure;BME280_temperature;BME280_humidity;BME280_pressure;Samples;Min_cycle;Max_cycle;Signal;HPM_P1;HPM_P2
2022/09/25 00:02:05;;;;;;;6.88;4.10;;;22.40;58.00;;;;;;6108836;28;80289;-49
2022/09/25 00:05:06;;;;;;;6.15;4.57;;;22.40;58.10;;;;;;6116099;28;80521;-49
2022/09/25 00:08:06;;;;;;;7.60;4.28;;;22.40;57.90;;;;;;6110850;28;80308;-51
2022/09/25 00:11:07;;;;;;;9.50;5.15;;;22.40;58.00;;;;;;6115345;28;80960;-50
2022/09/25 00:14:07;;;;;;;8.73;4.57;;;22.40;58.10;;;;;;6108603;28;80495;-51
2022/09/25 00:17:08;;;;;;;7.82;3.83;;;22.40;58.10;;;;;;6123434;28;81075;-53
2022/09/25 00:20:09;;;;;;;5.68;4.20;;;22.40;58.00;;;;;;6127090;28;80737;-51
2022/09/25 00:23:09;;;;;;;7.10;3.97;;;22.40;57.90;;;;;;6128462;28;80480;-51
2022/09/25 00:26:10;;;;;;;5.60;3.75;;;22.40;57.80;;;;;;6127250;28;86114;-52
2022/09/25 00:29:11;;;;;;;5.50;3.92;;;22.40;57.70;;;;;;6122072;28;80876;-49
2022/09/25 00:32:11;;;;;;;9.57;4.65;;;22.40;57.70;;;;;;6127453;28;80547;-48
2022/09/25 00:35:12;;;;;;;5.50;3.75;;;22.40;57.60;;;;;;6142041;28;87390;-47
2022/09/25 00:38:12;;;;;;;8.88;4.47;;;22.40;57.60;;;;;;6128682;28;80915;-50
2022/09/25 00:41:13;;;;;;;9.68;4.72;;;22.40;57.60;;;;;;6127249;28;85945;-48
2022/09/25 00:44:13;;;;;;;6.65;4.05;;;22.40;57.50;;;;;;6130440;28;80868;-50
2022/09/25 00:47:13;;;;;;;6.88;4.18;;;22.30;57.50;;;;;;6114562;28;80678;-51
2022/09/25 00:50:15;;;;;;;11.30;5.25;;;22.30;57.40;;;;;;6131547;28;80945;-51
2022/09/25 00:53:15;;;;;;;8.02;4.45;;;22.30;57.40;;;;;;6126759;28;81129;-49
2022/09/25 00:56:16;;;;;;;9.43;4.55;;;22.30;57.30;;;;;;6124076;28;80644;-48
2022/09/25 00:59:16;;;;;;;6.75;4.45;;;22.30;57.30;;;;;;6130002;28;80616;-52
2022/09/25 01:02:17;;;;;;;6.53;3.88;;;22.30;57.40;;;;;;6127847;28;80394;-47
2022/09/25 01:05:17;;;;;;;9.55;4.85;;;22.30;57.30;;;;;;6126839;28;80963;-49
2022/09/25 01:08:17;;;;;;;6.72;4.50;;;22.30;57.30;;;;;;6133761;28;83067;-57
2022/09/25 01:11:18;;;;;;;9.85;4.45;;;22.30;57.10;;;;;;6134549;28;80666;-57
2022/09/25 01:14:18;;;;;;;7.03;4.15;;;22.30;57.00;;;;;;6125787;28;80714;-57
2022/09/25 01:17:19;;;;;;;9.48;4.60;;;22.30;57.00;;;;;;6126125;28;80461;-56
2022/09/25 01:20:19;;;;;;;6.95;4.68;;;22.30;56.90;;;;;;6127121;28;82292;-57
2022/09/25 01:23:20;;;;;;;7.72;4.30;;;22.30;57.00;;;;;;6130991;28;80903;-58
2022/09/25 01:26:20;;;;;;;9.32;4.28;;;22.30;56.90;;;;;;6120028;28;81248;-53
2022/09/25 01:29:21;;;;;;;10.52;5.25;;;22.30;56.90;;;;;;6125633;28;80402;-50
2022/09/25 01:32:21;;;;;;;6.82;4.57;;;22.30;56.80;;;;;;6128467;28;80682;-52
2022/09/25 01:35:22;;;;;;;7.10;4.75;;;22.30;56.80;;;;;;6124220;28;86799;-52
2022/09/25 01:38:22;;;;;;;9.60;4.38;;;22.30;56.80;;;;;;6130011;28;80227;-52
2022/09/25 01:41:23;;;;;;;6.75;4.22;;;22.20;56.80;;;;;;6115153;28;83829;-52
2022/09/25 01:44:26;;;;;;;7.43;5.03;;;22.30;57.00;;;;;;6103065;28;81116;-48
2022/09/25 01:47:26;;;;;;;11.57;4.75;;;22.20;56.90;;;;;;6116964;28;85220;-50
2022/09/25 01:50:27;;;;;;;7.40;5.07;;;22.20;56.80;;;;;;6095470;28;80875;-52
2022/09/25 01:53:27;;;;;;;6.90;4.63;;;22.30;56.90;;;;;;6104552;28;80781;-52
2022/09/25 01:56:31;;;;;;;8.55;5.05;;;22.20;56.80;;;;;;6113932;28;80346;-55
2022/09/25 01:59:32;;;;;;;9.13;5.10;;;22.30;56.90;;;;;;6104544;28;80317;-52
2022/09/25 02:02:33;;;;;;;7.10;4.68;;;22.30;56.80;;;;;;6102588;28;80648;-58
2022/09/25 02:05:34;;;;;;;8.60;5.80;;;22.20;56.70;;;;;;6117290;28;80533;-57
2022/09/25 02:08:35;;;;;;;9.45;5.55;;;22.20;56.70;;;;;;6114086;28;81101;-58
2022/09/25 02:11:38;;;;;;;7.75;5.30;;;22.20;56.70;;;;;;6115978;28;85231;-58
2022/09/25 02:14:39;;;;;;;9.23;5.45;;;22.20;56.70;;;;;;6121193;28;80615;-63
2022/09/25 02:20:59;;;;;;;7.55;4.90;;;22.30;56.80;;;;;;6111974;28;80188;-59
2022/09/25 02:23:59;;;;;;;6.57;4.57;;;22.30;56.80;;;;;;6128359;28;80389;-59
2022/09/25 02:27:01;;;;;;;11.93;5.40;;;22.20;56.70;;;;;;6118922;28;81561;-59
2022/09/25 02:30:02;;;;;;;11.63;5.13;;;22.30;56.80;;;;;;6127374;28;81074;-59
2022/09/25 02:33:02;;;;;;;8.82;5.00;;;22.20;56.70;;;;;;6122200;28;82292;-58
2022/09/25 02:36:03;;;;;;;8.80;4.70;;;22.20;56.90;;;;;;6115008;28;80904;-58
2022/09/25 02:39:03;;;;;;;7.88;5.05;;;22.20;56.80;;;;;;6136227;28;81050;-62
2022/09/25 02:42:04;;;;;;;9.40;5.38;;;22.20;56.80;;;;;;6129108;28;80514;-62
2022/09/25 02:45:04;;;;;;;7.32;4.60;;;22.30;56.80;;;;;;6130629;28;80611;-62
2022/09/25 02:48:05;;;;;;;8.57;5.05;;;22.20;56.60;;;;;;6139211;28;80609;-62
2022/09/25 02:51:05;;;;;;;8.52;4.78;;;22.30;56.60;;;;;;6130128;28;80948;-62
2022/09/25 02:54:06;;;;;;;9.73;5.53;;;22.20;56.50;;;;;;6122420;28;81172;-62
2022/09/25 02:57:07;;;;;;;7.35;4.82;;;22.20;56.50;;;;;;6125405;28;83465;-62
2022/09/25 03:00:07;;;;;;;7.18;4.97;;;22.20;56.50;;;;;;6111145;28;80954;-61
2022/09/25 03:03:08;;;;;;;9.32;5.25;;;22.20;56.60;;;;;;6129060;28;81369;-62
2022/09/25 03:06:08;;;;;;;9.07;5.45;;;22.20;56.60;;;;;;6122996;28;80854;-62
2022/09/25 03:09:09;;;;;;;13.23;5.88;;;22.20;56.60;;;;;;6124707;28;80721;-62
2022/09/25 03:12:09;;;;;;;11.38;5.78;;;22.20;56.40;;;;;;6110455;28;80373;-62
2022/09/25 03:15:10;;;;;;;7.78;5.47;;;22.30;56.60;;;;;;6114700;28;85360;-62
2022/09/25 03:18:10;;;;;;;10.07;6.38;;;22.20;56.00;;;;;;6113468;28;81642;-61
2022/09/25 03:21:11;;;;;;;11.10;5.57;;;22.20;56.30;;;;;;6125244;28;80448;-61
2022/09/25 03:24:11;;;;;;;10.95;6.15;;;22.20;56.20;;;;;;6123371;28;80450;-61
2022/09/25 03:27:12;;;;;;;9.55;6.05;;;22.20;56.10;;;;;;6128505;28;81326;-61
2022/09/25 03:30:12;;;;;;;10.07;6.28;;;22.30;56.10;;;;;;6128636;28;80453;-61
2022/09/25 03:33:13;;;;;;;11.27;6.35;;;22.30;56.00;;;;;;6128896;28;80737;-61
2022/09/25 03:36:13;;;;;;;9.10;5.70;;;22.30;55.90;;;;;;6126398;28;80280;-62
2022/09/25 03:39:14;;;;;;;8.82;5.78;;;22.30;55.90;;;;;;6129104;28;80587;-62
2022/09/25 03:42:14;;;;;;;9.55;6.03;;;22.40;55.90;;;;;;6130998;28;83010;-62
2022/09/25 03:45:15;;;;;;;9.40;6.20;;;22.40;55.90;;;;;;6138773;28;80373;-62
2022/09/25 03:48:16;;;;;;;8.75;6.28;;;22.40;55.90;;;;;;6126257;28;80726;-62
2022/09/25 03:51:17;;;;;;;10.45;5.70;;;22.40;55.80;;;;;;6126796;28;82350;-62
2022/09/25 03:54:18;;;;;;;9.52;5.78;;;22.50;55.80;;;;;;6125808;28;80634;-62
2022/09/25 03:57:18;;;;;;;11.95;5.93;;;22.50;55.90;;;;;;6126126;28;80746;-62
2022/09/25 04:00:19;;;;;;;8.52;5.88;;;22.50;55.90;;;;;;6117209;28;83868;-62
2022/09/25 04:03:21;;;;;;;12.07;7.30;;;22.50;56.00;;;;;;6125451;28;83940;-61
2022/09/25 04:06:22;;;;;;;10.85;6.22;;;22.50;55.90;;;;;;6106403;28;85221;-62
2022/09/25 04:09:23;;;;;;;9.55;5.57;;;22.50;55.80;;;;;;6115269;28;86946;-62
2022/09/25 04:12:23;;;;;;;9.23;6.20;;;22.60;55.80;;;;;;6109548;28;80491;-62
2022/09/25 04:15:24;;;;;;;11.23;6.47;;;22.60;55.70;;;;;;6120084;28;85821;-62
2022/09/25 04:18:26;;;;;;;10.70;6.13;;;22.60;55.60;;;;;;6119079;28;86822;-62
2022/09/25 04:21:26;;;;;;;8.48;6.57;;;22.60;55.70;;;;;;6129239;28;83540;-57
2022/09/25 04:27:48;;;;;;;21.10;7.40;;;22.60;55.60;;;;;;6127270;28;80734;-57
2022/09/25 04:30:48;;;;;;;12.27;6.68;;;22.60;55.60;;;;;;6128641;28;80894;-61
2022/09/25 04:33:49;;;;;;;14.40;5.93;;;22.60;55.70;;;;;;6123948;28;86125;-60
2022/09/25 04:36:49;;;;;;;9.18;6.00;;;22.70;55.80;;;;;;6116042;28;81124;-61
2022/09/25 04:39:50;;;;;;;11.18;6.50;;;22.70;55.80;;;;;;6126465;28;83845;-62
2022/09/25 04:42:50;;;;;;;11.60;6.38;;;22.70;55.80;;;;;;6123749;28;81673;-60
2022/09/25 04:45:51;;;;;;;12.77;6.82;;;22.70;55.90;;;;;;6130577;28;80141;-61
2022/09/25 04:48:51;;;;;;;10.50;6.45;;;22.70;55.90;;;;;;6113059;28;80314;-61
2022/09/25 04:51:52;;;;;;;11.38;6.35;;;22.70;55.90;;;;;;6106475;28;80841;-62
2022/09/25 04:54:53;;;;;;;9.85;5.65;;;22.70;55.90;;;;;;6110002;28;80494;-62
2022/09/25 04:57:54;;;;;;;10.55;6.18;;;22.70;56.20;;;;;;6116258;28;85492;-63
2022/09/25 05:00:54;;;;;;;10.75;6.15;;;22.70;56.40;;;;;;6111700;28;80339;-62
2022/09/25 05:03:55;;;;;;;14.32;6.57;;;22.70;56.50;;;;;;6112333;28;81121;-62
2022/09/25 05:06:55;;;;;;;10.82;6.20;;;22.70;56.50;;;;;;6111360;28;81509;-63
2022/09/25 05:09:56;;;;;;;16.75;6.20;;;22.80;56.50;;;;;;6108308;28;81067;-63
2022/09/25 05:12:57;;;;;;;9.05;6.05;;;22.80;56.60;;;;;;6110255;28;82918;-63
2022/09/25 05:15:58;;;;;;;9.90;6.13;;;22.80;56.70;;;;;;6114287;28;80191;-62
2022/09/25 05:18:58;;;;;;;11.35;6.15;;;22.80;56.90;;;;;;6113060;28;80514;-62
2022/09/25 05:21:59;;;;;;;11.48;6.75;;;22.70;56.90;;;;;;6106582;28;80480;-62
2022/09/25 05:24:59;;;;;;;9.68;6.05;;;22.80;57.10;;;;;;6116006;28;81840;-62
2022/09/25 05:28:00;;;;;;;9.35;5.97;;;22.80;57.00;;;;;;6099209;28;81708;-63
2022/09/25 05:31:03;;;;;;;10.38;6.60;;;22.80;57.00;;;;;;6099833;28;83968;-61
2022/09/25 05:34:04;;;;;;;10.00;6.20;;;22.80;56.90;;;;;;6094129;28;80695;-62
2022/09/25 05:37:04;;;;;;;11.55;6.00;;;22.80;56.80;;;;;;6109121;28;82800;-62
2022/09/25 05:40:05;;;;;;;12.20;6.78;;;22.80;56.70;;;;;;6116399;28;84617;-63
2022/09/25 05:43:06;;;;;;;13.30;6.63;;;22.80;56.70;;;;;;6112803;28;82905;-62
2022/09/25 05:46:06;;;;;;;8.32;6.10;;;22.80;56.40;;;;;;6110073;28;80350;-62
2022/09/25 05:49:07;;;;;;;13.65;7.60;;;22.70;56.80;;;;;;6104328;28;80083;-63
2022/09/25 05:52:07;;;;;;;15.05;8.10;;;22.70;56.10;;;;;;6121489;28;80908;-66
2022/09/25 05:55:09;;;;;;;20.27;8.32;;;22.60;55.90;;;;;;6101947;28;83751;-67
2022/09/25 05:58:10;;;;;;;15.45;8.27;;;22.60;55.60;;;;;;6103937;28;80678;-64
2022/09/25 06:01:10;;;;;;;14.55;7.82;;;22.50;55.40;;;;;;6096338;28;81846;-63
2022/09/25 06:04:11;;;;;;;15.25;8.00;;;22.50;55.50;;;;;;6117990;28;80504;-64
2022/09/25 06:07:11;;;;;;;14.00;7.50;;;22.50;55.50;;;;;;6114799;28;85417;-63
2022/09/25 06:10:11;;;;;;;16.90;9.57;;;22.40;55.60;;;;;;6117800;28;80604;-63
2022/09/25 06:13:12;;;;;;;12.70;8.73;;;22.40;55.70;;;;;;6114871;28;80787;-63
2022/09/25 06:16:13;;;;;;;14.32;8.52;;;22.40;56.20;;;;;;6106182;28;80974;-63
2022/09/25 06:19:13;;;;;;;13.40;7.88;;;22.40;56.40;;;;;;6111231;28;80365;-64
2022/09/25 06:22:14;;;;;;;14.40;8.40;;;22.40;56.30;;;;;;6106784;28;80438;-64
2022/09/25 06:25:15;;;;;;;17.92;8.85;;;22.40;56.60;;;;;;6103866;28;80240;-63
2022/09/25 06:28:15;;;;;;;15.35;8.90;;;22.40;55.80;;;;;;6107442;28;85000;-63
2022/09/25 06:31:16;;;;;;;15.65;8.50;;;22.40;55.90;;;;;;6102669;28;81460;-63
2022/09/25 06:34:16;;;;;;;16.00;9.18;;;22.40;56.30;;;;;;6094082;28;80714;-66
2022/09/25 06:37:16;;;;;;;19.35;9.73;;;22.30;55.60;;;;;;6101492;28;86038;-58
2022/09/25 06:40:17;;;;;;;19.15;10.63;;;22.30;55.70;;;;;;6098487;28;80339;-60
2022/09/25 06:43:18;;;;;;;21.95;10.95;;;22.30;56.10;;;;;;6100415;28;83393;-59
2022/09/25 06:46:18;;;;;;;24.90;12.10;;;22.30;56.60;;;;;;6099996;28;82978;-59
2022/09/25 06:49:19;;;;;;;29.45;16.38;;;22.30;56.10;;;;;;6099755;28;83603;-60
2022/09/25 06:52:19;;;;;;;28.05;15.00;;;22.30;56.20;;;;;;6091833;28;88266;-59
2022/09/25 06:55:20;;;;;;;32.63;14.68;;;22.30;56.50;;;;;;6095366;28;86283;-59
2022/09/25 06:58:21;;;;;;;31.15;15.38;;;22.30;56.40;;;;;;6097394;28;86876;-59
2022/09/25 07:01:21;;;;;;;26.38;14.00;;;22.30;56.70;;;;;;6091219;28;83108;-59
2022/09/25 07:04:22;;;;;;;28.17;15.07;;;22.30;56.90;;;;;;6110261;28;89575;-59
2022/09/25 07:07:23;;;;;;;38.03;16.00;;;22.30;56.90;;;;;;6093289;28;86001;-60
2022/09/25 07:10:23;;;;;;;28.75;15.40;;;22.30;57.30;;;;;;6085086;28;86115;-59
2022/09/25 07:13:24;;;;;;;28.92;16.73;;;22.40;57.40;;;;;;6112924;28;83036;-59
2022/09/25 07:16:24;;;;;;;34.65;15.35;;;22.40;57.70;;;;;;6101855;28;87170;-63
2022/09/25 07:19:24;;;;;;;32.58;16.17;;;22.40;57.70;;;;;;6105297;28;85447;-64
2022/09/25 07:22:25;;;;;;;28.40;15.38;;;22.40;57.90;;;;;;6127199;28;84084;-62
2022/09/25 07:25:25;;;;;;;31.77;14.20;;;22.40;58.10;;;;;;6109462;28;89821;-63
2022/09/25 07:28:26;;;;;;;38.35;15.52;;;22.50;58.20;;;;;;6117281;28;86191;-62
2022/09/25 07:31:26;;;;;;;27.50;14.25;;;22.50;58.20;;;;;;6115857;28;83048;-64
2022/09/25 07:34:27;;;;;;;26.63;12.88;;;22.50;58.30;;;;;;6091046;28;84548;-60
2022/09/25 07:37:28;;;;;;;27.88;13.63;;;22.60;58.40;;;;;;6094910;28;82857;-61
2022/09/25 07:40:30;;;;;;;26.15;11.80;;;22.60;58.60;;;;;;6098587;28;84223;-61
2022/09/25 07:43:31;;;;;;;25.10;12.98;;;22.60;58.80;;;;;;6104000;28;83610;-60
2022/09/25 07:46:32;;;;;;;19.45;11.88;;;22.60;58.80;;;;;;6112827;28;83297;-59
2022/09/25 07:49:33;;;;;;;23.67;12.68;;;22.70;58.90;;;;;;6117855;28;83377;-60
2022/09/25 07:52:34;;;;;;;24.73;12.85;;;22.70;58.90;;;;;;6117470;28;84820;-59
2022/09/25 07:55:34;;;;;;;21.65;12.38;;;22.80;59.00;;;;;;6104808;28;83328;-60
2022/09/25 07:58:35;;;;;;;19.70;11.52;;;22.80;59.10;;;;;;6107668;28;82955;-61
2022/09/25 08:01:35;;;;;;;23.30;12.85;;;22.80;59.00;;;;;;6114435;28;84079;-60
2022/09/25 08:04:36;;;;;;;22.67;12.05;;;22.90;59.20;;;;;;6102525;28;82988;-59
2022/09/25 08:07:36;;;;;;;21.95;12.23;;;22.90;59.20;;;;;;6102155;28;83335;-59
2022/09/25 08:10:37;;;;;;;21.55;11.68;;;22.90;59.10;;;;;;6102185;28;83247;-61
2022/09/25 08:13:37;;;;;;;36.88;12.07;;;22.90;59.10;;;;;;6099538;28;83262;-60
2022/09/25 08:16:38;;;;;;;20.67;11.73;;;23.00;58.60;;;;;;6099653;28;83115;-59
2022/09/25 08:19:38;;;;;;;22.17;10.65;;;23.00;58.50;;;;;;6124613;28;83308;-65
2022/09/25 08:22:39;;;;;;;16.23;10.35;;;23.00;58.50;;;;;;6127166;28;83039;-59
2022/09/25 08:25:39;;;;;;;183.02;65.97;;;23.00;58.50;;;;;;6119365;28;86784;-59
2022/09/25 08:28:40;;;;;;;454.15;166.65;;;23.10;58.60;;;;;;6126036;28;86395;-59
2022/09/25 08:31:41;;;;;;;613.63;243.93;;;23.10;58.50;;;;;;6128069;28;85167;-58
2022/09/25 08:34:41;;;;;;;670.72;275.65;;;23.10;58.50;;;;;;6111946;28;85292;-59
2022/09/25 08:37:43;;;;;;;513.03;198.93;;;23.10;58.70;;;;;;6124649;28;85433;-59
2022/09/25 08:40:44;;;;;;;487.52;179.02;;;23.10;58.70;;;;;;6119758;28;86138;-59
2022/09/25 08:43:44;;;;;;;465.98;161.38;;;23.10;58.80;;;;;;6123146;28;85679;-59
2022/09/25 08:50:04;;;;;;;361.75;134.15;;;23.10;58.80;;;;;;6113016;28;92671;-55
2022/09/25 08:53:05;;;;;;;325.55;124.63;;;23.10;58.80;;;;;;6107170;28;87109;-57
2022/09/25 08:56:18;;;;;;;325.70;117.63;;;23.20;59.10;;;;;;6116228;28;85688;-54
2022/09/25 08:59:22;;;;;;;291.98;107.63;;;23.20;59.10;;;;;;6112460;28;85941;-55
2022/09/25 09:02:23;;;;;;;298.92;103.60;;;23.30;59.20;;;;;;6097255;28;91072;-52
2022/09/25 09:05:25;;;;;;;275.77;100.70;;;23.30;59.20;;;;;;6101801;28;86494;-57
2022/09/25 09:08:26;;;;;;;267.42;95.20;;;23.30;59.00;;;;;;6092243;28;85947;-57
2022/09/25 09:11:27;;;;;;;245.38;89.95;;;23.30;58.90;;;;;;6102137;28;85468;-56
2022/09/25 09:14:28;;;;;;;242.93;93.95;;;23.30;58.70;;;;;;6101980;28;82925;-56
2022/09/25 09:17:31;;;;;;;241.45;88.75;;;23.20;58.70;;;;;;6105775;28;87992;-56
2022/09/25 09:20:31;;;;;;;221.45;83.30;;;23.30;58.70;;;;;;6104935;28;83012;-60
2022/09/25 09:23:32;;;;;;;239.60;87.32;;;23.30;58.50;;;;;;6120131;28;86030;-57
2022/09/25 09:26:32;;;;;;;220.60;81.78;;;23.30;58.70;;;;;;6127402;28;82989;-57
2022/09/25 09:29:33;;;;;;;192.18;74.93;;;23.40;58.70;;;;;;6115683;28;90076;-58
2022/09/25 09:32:34;;;;;;;207.18;76.55;;;23.40;58.70;;;;;;6115955;28;82993;-56
2022/09/25 09:35:34;;;;;;;199.98;76.43;;;23.40;59.00;;;;;;6102117;28;83256;-57
2022/09/25 09:38:35;;;;;;;193.82;71.05;;;23.50;59.20;;;;;;6098175;28;85982;-55
2022/09/25 09:41:36;;;;;;;188.77;68.28;;;23.50;59.10;;;;;;6096975;28;83575;-53
2022/09/25 09:44:36;;;;;;;173.00;69.68;;;23.50;59.10;;;;;;6103714;28;83749;-54
2022/09/25 09:47:38;;;;;;;168.52;68.03;;;23.50;59.10;;;;;;6103264;28;83329;-55
2022/09/25 09:50:39;;;;;;;175.45;66.10;;;23.50;59.30;;;;;;6100004;28;84661;-52
2022/09/25 09:53:39;;;;;;;155.10;62.83;;;23.40;59.40;;;;;;6099509;28;82813;-58
2022/09/25 09:56:39;;;;;;;173.50;64.28;;;23.50;59.40;;;;;;6102041;28;86779;-57
2022/09/25 09:59:40;;;;;;;166.73;63.80;;;23.40;59.60;;;;;;6105802;28;86550;-56
2022/09/25 10:02:41;;;;;;;155.68;59.80;;;23.40;59.70;;;;;;6102032;28;83101;-54
2022/09/25 10:05:41;;;;;;;147.30;57.95;;;23.30;59.80;;;;;;6099960;28;83747;-57
2022/09/25 10:08:42;;;;;;;148.02;57.15;;;23.40;60.00;;;;;;6102142;28;83254;-54
2022/09/25 10:11:42;;;;;;;122.38;53.97;;;23.40;59.90;;;;;;6100605;28;83985;-59
2022/09/25 10:14:43;;;;;;;129.48;54.63;;;23.40;60.10;;;;;;6106816;28;83000;-71
2022/09/25 10:17:43;;;;;;;132.63;54.63;;;23.40;60.00;;;;;;6121433;28;85001;-61
2022/09/25 10:20:44;;;;;;;134.45;50.50;;;23.40;60.20;;;;;;6120187;28;82933;-51
2022/09/25 10:23:44;;;;;;;129.05;54.20;;;23.40;60.70;;;;;;6121940;28;87285;-53
2022/09/25 10:26:45;;;;;;;116.05;48.42;;;23.40;60.80;;;;;;6111527;28;83799;-55
2022/09/25 10:29:45;;;;;;;112.50;47.55;;;23.40;60.70;;;;;;6120740;28;88079;-53
2022/09/25 10:32:46;;;;;;;131.48;47.30;;;23.30;60.40;;;;;;6112388;28;82943;-57
2022/09/25 10:35:47;;;;;;;111.13;44.85;;;23.40;61.10;;;;;;6114561;28;88632;-58
2022/09/25 10:38:48;;;;;;;117.82;44.97;;;23.30;60.90;;;;;;6116479;28;83927;-56
2022/09/25 10:41:49;;;;;;;96.88;42.03;;;23.30;61.00;;;;;;6125309;28;83227;-56
2022/09/25 10:44:50;;;;;;;106.30;42.65;;;23.30;61.20;;;;;;6123694;28;83381;-56
2022/09/25 10:51:10;;;;;;;97.85;41.15;;;23.30;61.80;;;;;;6110494;28;89515;-64
2022/09/25 10:54:10;;;;;;;103.63;41.10;;;23.30;62.00;;;;;;6087317;28;89691;-59
2022/09/25 10:57:11;;;;;;;108.25;41.17;;;23.30;63.00;;;;;;6095839;28;83463;-50
2022/09/25 11:00:11;;;;;;;89.03;38.33;;;23.30;63.60;;;;;;6089265;28;84342;-52
2022/09/25 11:03:13;;;;;;;93.53;39.63;;;23.30;64.20;;;;;;6090823;28;84246;-52
2022/09/25 11:06:15;;;;;;;92.10;38.20;;;23.30;64.60;;;;;;6092670;28;84962;-53
2022/09/25 11:09:16;;;;;;;109.10;39.03;;;23.30;65.10;;;;;;6123672;28;86185;-52
2022/09/25 11:12:18;;;;;;;89.25;39.28;;;23.30;65.40;;;;;;6101490;28;83304;-52
2022/09/25 11:15:19;;;;;;;90.88;36.90;;;23.30;65.50;;;;;;6096083;28;85776;-54
2022/09/25 11:18:19;;;;;;;81.47;34.30;;;23.30;66.00;;;;;;6119728;28;83006;-50
2022/09/25 11:21:20;;;;;;;88.43;34.42;;;23.30;66.80;;;;;;6124084;28;86354;-51
2022/09/25 11:24:21;;;;;;;82.72;34.58;;;23.30;67.80;;;;;;6103006;28;83155;-51
2022/09/25 11:27:21;;;;;;;79.43;34.55;;;23.30;67.80;;;;;;6103547;28;83296;-47
2022/09/25 11:30:22;;;;;;;68.03;31.15;;;23.30;67.60;;;;;;6093352;28;83093;-49
2022/09/25 11:33:23;;;;;;;81.32;33.85;;;23.30;68.00;;;;;;6096706;28;83050;-51
2022/09/25 11:36:23;;;;;;;70.45;32.20;;;23.30;68.00;;;;;;6093597;28;83985;-48
2022/09/25 11:42:43;;;;;;;71.85;31.17;;;23.30;67.60;;;;;;6112701;28;89413;-50
2022/09/25 11:45:45;;;;;;;60.70;28.55;;;23.30;67.10;;;;;;6115810;28;82913;-53
2022/09/25 11:48:45;;;;;;;72.57;30.92;;;23.30;66.60;;;;;;6104824;28;85953;-51
2022/09/25 11:51:46;;;;;;;60.75;27.25;;;23.30;66.20;;;;;;6115221;28;83500;-55
2022/09/25 11:54:46;;;;;;;58.30;26.25;;;23.30;66.30;;;;;;6104758;28;83569;-53
2022/09/25 11:57:48;;;;;;;52.72;27.33;;;23.30;66.50;;;;;;6122584;28;83593;-53
2022/09/25 12:00:49;;;;;;;65.60;27.58;;;23.30;66.50;;;;;;6108379;28;84004;-54
2022/09/25 12:03:50;;;;;;;53.50;24.65;;;23.30;66.60;;;;;;6105185;28;86892;-53
2022/09/25 12:06:52;;;;;;;50.70;24.75;;;23.30;66.40;;;;;;6104506;28;84439;-53
2022/09/25 12:09:52;;;;;;;55.25;23.77;;;23.30;66.20;;;;;;6103186;28;83356;-55
2022/09/25 12:12:56;;;;;;;63.00;24.65;;;23.30;66.10;;;;;;6103987;28;83633;-51
2022/09/25 12:15:57;;;;;;;50.88;22.42;;;23.30;66.10;;;;;;6117404;28;83133;-51
2022/09/25 12:18:59;;;;;;;49.67;24.02;;;23.30;66.10;;;;;;6115778;28;83251;-56
2022/09/25 12:22:00;;;;;;;49.60;23.25;;;23.30;65.70;;;;;;6087166;28;87924;-52
2022/09/25 12:25:00;;;;;;;52.88;22.30;;;23.30;65.90;;;;;;6113841;28;83339;-54
2022/09/25 12:28:01;;;;;;;45.20;20.40;;;23.30;66.00;;;;;;6093311;28;87253;-52
2022/09/25 12:31:01;;;;;;;49.80;22.58;;;23.30;65.70;;;;;;6097427;28;83064;-51
2022/09/25 12:34:02;;;;;;;43.65;20.85;;;23.30;65.80;;;;;;6105371;28;87248;-54
2022/09/25 12:37:02;;;;;;;48.67;21.75;;;23.30;65.40;;;;;;6090297;28;83633;-52
2022/09/25 12:40:03;;;;;;;47.33;21.50;;;23.30;65.50;;;;;;6088887;28;86715;-67
2022/09/25 12:43:03;;;;;;;46.97;21.15;;;23.20;65.70;;;;;;6122473;28;86595;-50
2022/09/25 12:46:05;;;;;;;43.47;20.42;;;23.30;66.10;;;;;;6104613;28;86809;-47
2022/09/25 12:49:06;;;;;;;52.75;20.30;;;23.20;67.10;;;;;;6101574;28;83274;-55
2022/09/25 12:52:07;;;;;;;37.13;19.83;;;23.20;67.30;;;;;;6097303;28;83514;-48
2022/09/25 12:55:08;;;;;;;46.45;20.45;;;23.20;67.70;;;;;;6107933;28;86338;-53
2022/09/25 12:58:09;;;;;;;43.45;20.50;;;23.20;68.00;;;;;;6115078;28;87007;-54
2022/09/25 13:01:10;;;;;;;42.75;19.00;;;23.30;67.80;;;;;;6116268;28;82941;-54
2022/09/25 13:04:10;;;;;;;43.97;19.02;;;23.30;68.00;;;;;;6095462;28;89291;-52
2022/09/25 13:07:11;;;;;;;34.40;17.88;;;23.30;67.90;;;;;;6090437;28;86730;-52
2022/09/25 13:10:11;;;;;;;39.25;18.10;;;23.30;67.90;;;;;;6088975;28;83258;-54
2022/09/25 13:13:12;;;;;;;41.78;18.73;;;23.30;68.00;;;;;;6108355;28;83018;-51
2022/09/25 13:16:14;;;;;;;34.80;15.85;;;23.30;68.10;;;;;;6104733;28;83934;-53
2022/09/25 13:19:15;;;;;;;36.70;16.95;;;23.30;68.80;;;;;;6094605;28;88844;-58
2022/09/25 13:22:16;;;;;;;34.17;17.15;;;23.30;68.80;;;;;;6109443;28;83658;-52
2022/09/25 13:25:17;;;;;;;33.88;16.60;;;23.30;68.70;;;;;;6108351;28;87238;-52
2022/09/25 13:28:18;;;;;;;31.48;15.65;;;23.30;68.40;;;;;;6102736;28;83758;-53
2022/09/25 13:31:19;;;;;;;38.40;16.33;;;23.20;68.70;;;;;;6097027;28;86952;-53
2022/09/25 13:34:19;;;;;;;30.33;15.13;;;23.20;68.60;;;;;;6091717;28;84728;-52
2022/09/25 13:37:20;;;;;;;34.60;14.98;;;23.20;68.40;;;;;;6090204;28;84001;-54
2022/09/25 13:43:39;;;;;;;23.30;13.65;;;23.30;68.40;;;;;;6117160;28;86391;-51
2022/09/25 13:46:40;;;;;;;31.58;14.55;;;23.30;68.40;;;;;;6116484;28;84046;-53
2022/09/25 13:49:40;;;;;;;32.40;14.02;;;23.30;68.20;;;;;;6119804;28;83526;-56
2022/09/25 13:52:41;;;;;;;31.30;14.10;;;23.30;68.00;;;;;;6108629;28;83418;-54
2022/09/25 13:55:41;;;;;;;29.70;13.68;;;23.30;68.50;;;;;;6113523;28;83562;-50
2022/09/25 13:58:42;;;;;;;26.42;12.48;;;23.30;68.20;;;;;;6094664;28;83030;-48
2022/09/25 14:01:42;;;;;;;25.63;11.65;;;23.20;67.60;;;;;;6120323;28;82959;-52
2022/09/25 14:04:43;;;;;;;29.90;12.38;;;23.20;67.90;;;;;;6115601;28;82884;-55
2022/09/25 14:07:44;;;;;;;27.10;13.40;;;23.20;67.80;;;;;;6119238;28;84145;-56
2022/09/25 14:10:44;;;;;;;25.70;12.25;;;23.20;67.90;;;;;;6116946;28;83186;-55
2022/09/25 14:13:45;;;;;;;22.33;11.20;;;23.20;67.80;;;;;;6113719;28;84746;-53
2022/09/25 14:16:46;;;;;;;24.25;13.15;;;23.20;67.90;;;;;;6108242;28;87622;-55
2022/09/25 14:19:47;;;;;;;23.38;11.60;;;23.20;67.90;;;;;;6118797;28;83208;-54
2022/09/25 14:22:48;;;;;;;25.13;11.43;;;23.20;68.20;;;;;;6113290;28;85568;-56
2022/09/25 14:25:48;;;;;;;23.38;11.75;;;23.20;67.50;;;;;;6116333;28;82973;-57
2022/09/25 14:28:49;;;;;;;22.55;11.13;;;23.20;67.50;;;;;;6103300;28;83471;-56
2022/09/25 14:31:49;;;;;;;16.63;9.88;;;23.20;67.60;;;;;;6112019;28;84222;-56
2022/09/25 14:34:50;;;;;;;22.35;10.98;;;23.20;67.50;;;;;;6119138;28;83586;-55
2022/09/25 14:37:50;;;;;;;21.52;10.85;;;23.20;67.60;;;;;;6116550;28;84631;-57
2022/09/25 14:40:51;;;;;;;31.10;11.05;;;23.20;67.60;;;;;;6118361;28;83181;-53
2022/09/25 14:43:51;;;;;;;25.38;10.35;;;23.20;67.60;;;;;;6118788;28;88662;-53
2022/09/25 14:46:52;;;;;;;18.73;9.68;;;23.20;67.40;;;;;;6117341;28;83113;-53
2022/09/25 14:49:52;;;;;;;17.92;10.15;;;23.20;67.30;;;;;;6104755;28;83298;-53
2022/09/25 14:52:53;;;;;;;15.63;8.90;;;23.10;66.70;;;;;;6117784;28;83299;-49
2022/09/25 14:55:53;;;;;;;17.95;8.88;;;23.20;66.30;;;;;;6112910;28;83359;-61
2022/09/25 14:58:54;;;;;;;16.50;9.10;;;23.10;65.90;;;;;;6128483;28;84017;-61
2022/09/25 15:01:55;;;;;;;16.00;9.30;;;23.10;65.10;;;;;;6110898;28;81940;-60
2022/09/25 15:04:55;;;;;;;17.67;9.57;;;23.10;64.60;;;;;;6114547;28;81315;-61
2022/09/25 15:07:57;;;;;;;14.60;8.23;;;23.10;64.30;;;;;;6114892;28;80952;-58
2022/09/25 15:10:58;;;;;;;11.65;7.20;;;23.10;64.00;;;;;;6115120;28;81261;-59
2022/09/25 15:13:58;;;;;;;15.48;7.65;;;23.10;63.40;;;;;;6114729;28;83228;-58
2022/09/25 15:20:18;;;;;;;13.10;7.18;;;23.10;62.80;;;;;;6102114;28;81307;-58
2022/09/25 15:23:18;;;;;;;13.93;7.63;;;23.10;62.10;;;;;;6100555;28;80498;-60
2022/09/25 15:26:19;;;;;;;17.10;7.57;;;23.10;61.90;;;;;;6122090;28;80204;-58
2022/09/25 15:29:19;;;;;;;10.85;6.55;;;23.10;61.90;;;;;;6123694;28;80460;-59
2022/09/25 15:32:20;;;;;;;11.88;7.05;;;23.10;62.70;;;;;;6115688;28;81512;-57
2022/09/25 15:35:20;;;;;;;14.75;7.43;;;23.10;62.60;;;;;;6120594;28;80723;-64
2022/09/25 15:38:21;;;;;;;15.02;7.53;;;23.10;62.60;;;;;;6127186;28;85851;-58
2022/09/25 15:41:24;;;;;;;10.35;6.82;;;23.20;63.10;;;;;;6113467;28;83406;-60
2022/09/25 15:44:25;;;;;;;15.90;7.18;;;23.20;63.00;;;;;;6123025;28;81083;-60
2022/09/25 15:47:25;;;;;;;13.50;7.18;;;23.10;63.40;;;;;;6118275;28;80300;-59